Flight Track Log - Related Links

Times and Time Zones

All times are in EDT time to prevent confusion due to time zone crossing. See the SWA1728 flight status page for this flight to view local times or setup timezone preferences in your user account.

Time Position Orientation Groundspeed Altitude Reporting Facility
EDT Latitude Longitude Course Direction KTS MPH feet Rate Location/Type
Mon 06:01:26 PM 39.7167 -104.5500 134° Southeast 275 316 11,000  Level Denver TRACON
Mon 06:01:52 PM 39.7067 -104.5111 108° East 279 321 12,100 2,591 Climbing Denver Center
Mon 06:02:54 PM 39.7100 -104.3942 88° East 301 346 14,800 2,081 Climbing Denver Center
Mon 06:03:56 PM 39.7411 -104.2792 71° East 341 392 16,400 2,177 Climbing Denver Center
Mon 06:04:58 PM 39.7736 -104.1558 71° East 361 415 19,300 2,226 Climbing Denver Center
Mon 06:05:00 PM 39.8667 -103.8122 90° East  Level FlightAware Approximate
Mon 06:06:00 PM 39.8100 -104.0133 72° East 396 456 21,000  Level Denver Center
Mon 06:07:01 PM 39.8467 -103.8717 71° East 411 473 23,000 1,951 Climbing Denver Center
Mon 06:08:03 PM 39.8825 -103.7325 71° East 418 481 25,000 1,694 Climbing Denver Center
Mon 06:09:05 PM 39.9006 -103.5769 81° East 431 496 26,500 1,742 Climbing Denver Center
Mon 06:10:07 PM 39.9236 -103.3867 81° East 450 518 28,600 1,645 Climbing Denver Center
Mon 06:11:09 PM 39.9408 -103.2236 82° East 451 519 29,900 1,452 Climbing Denver Center
Mon 06:12:11 PM 39.9606 -103.0586 81° East 456 525 31,600 1,597 Climbing Denver Center
Mon 06:13:13 PM 39.9772 -102.8964 82° East 448 516 33,200 1,561 Climbing Denver Center
Mon 06:14:14 PM 39.9944 -102.7369 82° East 442 509 34,800 1,317 Climbing Denver Center
Mon 06:15:16 PM 40.0131 -102.5658 82° East 441 507 35,900 1,016 Climbing Denver Center
Mon 06:16:18 PM 40.0286 -102.4167 82° East 435 501 36,900 532 Climbing Denver Center
Mon 06:17:20 PM 40.0406 -102.2903 83° East 438 504 37,000 48 Climbing Denver Center
Mon 06:18:22 PM 40.0619 -102.0892 82° East 439 505 37,000  Level Denver Center
Mon 06:19:24 PM 40.0803 -101.9131 82° East 439 505 37,000  Level Denver Center
Mon 06:20:26 PM 40.0947 -101.7572 83° East 449 517 37,000  Level Denver Center
Mon 06:21:27 PM 40.1092 -101.6031 83° East 449 517 37,000  Level Denver Center
Mon 06:22:29 PM 40.1269 -101.4244 83° East 446 513 37,000  Level Denver Center
Mon 06:23:31 PM 40.1411 -101.2731 83° East 442 509 37,000  Level Denver Center
Mon 06:24:33 PM 40.1589 -101.0986 82° East 437 503 37,000  Level Denver Center
Mon 06:25:35 PM 40.1722 -100.9469 83° East 438 504 37,000  Level Denver Center
Mon 06:26:36 PM 40.1856 -100.7958 83° East 439 505 37,000  Level Denver Center
Mon 06:27:39 PM 40.2014 -100.6194 83° East 440 506 37,000  Level Denver Center
Mon 06:28:40 PM 40.2169 -100.4444 83° East 438 504 37,000  Level Denver Center
Mon 06:29:42 PM 40.2294 -100.2936 84° East 438 504 37,000 -290 Level Denver Center
Mon 06:30:44 PM 40.2444 -100.1183 84° East 437 503 36,400 -726 Descending Denver Center
Mon 06:31:46 PM 40.2572 -99.9672 84° East 436 502 35,500 -677 Descending Denver Center
Mon 06:32:48 PM 40.2711 -99.7981 84° East 434 499 35,000 -244 Descending Denver Center
Mon 06:33:49 PM 40.2833 -99.6403 84° East 436 502 35,000  Level Denver Center
Mon 06:34:51 PM 40.2967 -99.4836 84° East 435 501 35,000  Level Denver Center
Mon 06:35:53 PM 40.3081 -99.3269 85° East 434 499 35,000  Level Denver Center
Mon 06:36:55 PM 40.3208 -99.1678 84° East 439 505 35,000  Level Denver Center
Mon 06:37:57 PM 40.3356 -98.9786 84° East 437 503 35,000  Level Denver Center
Mon 06:38:53 PM 40.3447 -98.8528 84° East 439 505 35,000  Level Minneapolis Center
Mon 06:39:55 PM 40.3561 -98.6931 85° East 441 507 35,000  Level Minneapolis Center
Mon 06:40:57 PM 40.3789 -98.5058 81° East 437 503 35,000 -339 Level Minneapolis Center
Mon 06:41:59 PM 40.3994 -98.3439 80° East 446 513 34,300 -823 Descending Minneapolis Center
Mon 06:43:01 PM 40.4200 -98.1831 80° East 449 517 33,300 -629 Descending Minneapolis Center
Mon 06:44:03 PM 40.4408 -98.0219 80° East 450 518 33,000 -146 Descending Minneapolis Center
Mon 06:45:04 PM 40.4583 -97.8611 82° East 448 516 33,000  Level Minneapolis Center
Mon 06:46:06 PM 40.4786 -97.7003 81° East 447 514 33,000  Level Minneapolis Center
Mon 06:47:08 PM 40.5011 -97.5064 81° East 448 516 33,000  Level Minneapolis Center
Mon 06:48:10 PM 40.5206 -97.3436 81° East 451 519 33,000  Level Minneapolis Center
Mon 06:49:12 PM 40.5386 -97.1878 81° East 450 518 33,000  Level Minneapolis Center
Mon 06:50:14 PM 40.5578 -97.0214 81° East 457 526 33,000  Level Minneapolis Center
Mon 06:51:15 PM 40.5758 -96.8564 82° East 458 527 33,000  Level Minneapolis Center
Mon 06:52:17 PM 40.5950 -96.6922 81° East 457 526 33,000  Level Minneapolis Center
Mon 06:53:19 PM 40.6133 -96.5286 82° East 456 525 33,000  Level Minneapolis Center
Mon 06:54:21 PM 40.6350 -96.3342 82° East 451 519 33,000  Level Minneapolis Center
Mon 06:55:23 PM 40.6519 -96.1692 82° East 455 524 33,000  Level Minneapolis Center
Mon 06:56:25 PM 40.6689 -96.0075 82° East 451 519 33,000  Level Minneapolis Center
Mon 06:57:26 PM 40.6864 -95.8447 82° East 452 520 33,000  Level Minneapolis Center
Mon 06:58:28 PM 40.7064 -95.6497 82° East 451 519 33,000  Level Minneapolis Center
Mon 06:59:30 PM 40.7228 -95.4842 83° East 456 525 33,000  Level Minneapolis Center
Mon 07:00:32 PM 40.7394 -95.3203 82° East 457 526 33,000  Level Minneapolis Center
Mon 07:01:34 PM 40.7567 -95.1536 82° East 458 527 33,000  Level Minneapolis Center
Mon 07:02:35 PM 40.7719 -94.9856 83° East 463 533 33,000  Level Minneapolis Center
Mon 07:03:37 PM 40.7883 -94.8167 83° East 465 535 33,000  Level Minneapolis Center
Mon 07:04:39 PM 40.8014 -94.6797 83° East 469 540 33,000  Level Minneapolis Center
Mon 07:05:41 PM 40.8217 -94.4544 83° East 470 541 33,000  Level Minneapolis Center
Mon 07:06:42 PM 40.8383 -94.2828 83° East 473 544 33,000  Level Minneapolis Center
Mon 07:07:44 PM 40.8531 -94.1122 83° East 471 542 33,000  Level Minneapolis Center
Mon 07:08:46 PM 40.8664 -93.9428 84° East 470 541 33,000  Level Minneapolis Center
Mon 07:09:48 PM 40.8842 -93.7361 83° East 473 544 33,000  Level Minneapolis Center
Mon 07:10:49 PM 40.8981 -93.5653 84° East 472 543 33,000  Level Minneapolis Center
Mon 07:11:51 PM 40.9119 -93.3917 84° East 475 547 33,000  Level Minneapolis Center
Mon 07:12:53 PM 40.9264 -93.2178 84° East 478 550 33,000  Level Minneapolis Center
Mon 07:13:55 PM 40.9411 -93.0411 84° East 482 555 33,000  Level Minneapolis Center
Mon 07:14:59 PM 40.9569 -92.8281 84° East 484 557 33,000  Level Chicago Center
Mon 07:16:01 PM 40.9706 -92.6536 84° East 481 554 33,000  Level Chicago Center
Mon 07:17:03 PM 40.9839 -92.4781 84° East 481 554 33,000  Level Chicago Center
Mon 07:18:05 PM 40.9967 -92.3056 84° East 477 549 33,000  Level Chicago Center
Mon 07:19:07 PM 41.0083 -92.1333 85° East 473 544 33,000  Level Chicago Center
Mon 07:20:09 PM 41.0197 -91.9658 85° East 465 535 33,000 -48 Level Chicago Center
Mon 07:21:11 PM 41.0339 -91.7669 85° East 457 526 32,900 -585 Descending Chicago Center
Mon 07:22:12 PM 41.0461 -91.5961 85° East 460 529 31,800 -927 Descending Chicago Center
Mon 07:23:14 PM 41.0567 -91.4286 85° East 456 525 31,000 -871 Descending Chicago Center
Mon 07:24:16 PM 41.0667 -91.2589 85° East 461 531 30,000 -1,016 Descending Chicago Center
Mon 07:25:18 PM 41.0781 -91.0942 85° East 450 518 28,900 -1,355 Descending Chicago Center
Mon 07:26:20 PM 41.0875 -90.9367 85° East 432 497 27,200 -1,839 Descending Chicago Center
Mon 07:27:22 PM 41.0964 -90.7814 86° East 421 484 25,100 -1,742 Descending Chicago Center
Mon 07:28:24 PM 41.1067 -90.6008 86° East 411 473 23,600 -1,016 Descending Chicago Center
Mon 07:29:26 PM 41.1161 -90.4494 85° East 410 472 23,000 -290 Descending Chicago Center
Mon 07:30:28 PM 41.1231 -90.2953 87° East 415 478 23,000 -145 Level Chicago Center
Mon 07:31:30 PM 41.1319 -90.1383 86° East 423 487 22,700 -919 Descending Chicago Center
Mon 07:32:32 PM 41.1400 -89.9931 86° East 399 459 21,100 -1,935 Descending Chicago Center
Mon 07:33:34 PM 41.1478 -89.8447 86° East 399 459 18,700 -2,323 Descending Chicago Center
Mon 07:34:36 PM 41.1558 -89.6969 86° East 400 460 16,300 -1,839 Descending Chicago Center
Mon 07:35:38 PM 41.1622 -89.5561 87° East 389 448 14,900 -1,161 Descending Chicago Center
Mon 07:36:40 PM 41.1739 -89.3964 84° East 367 422 13,900 -919 Descending Chicago Center
Mon 07:37:42 PM 41.1828 -89.2631 85° East 363 418 13,000 -919 Descending Chicago Center
Mon 07:38:44 PM 41.1906 -89.1358 85° East 361 415 12,000 -919 Descending Chicago Center
Mon 07:39:46 PM 41.2131 -89.0122 76° East 350 403 11,100 -919 Descending Chicago Center
Mon 07:40:48 PM 41.2669 -88.9047 56° Northeast 348 400 10,100 -532 Descending Chicago Center
Mon 07:41:50 PM 41.3267 -88.7783 58° Northeast 339 390 10,000 -677 Descending Chicago Center
Mon 07:42:52 PM 41.3761 -88.6758 57° Northeast 331 381 8,700 -1,512 Descending Chicago Center
Mon 07:43:53 PM 41.4250 -88.5744 57° Northeast 327 376 6,900 -1,317 Descending Chicago Center
Mon 07:44:55 PM 41.4700 -88.4786 58° Northeast 311 358 6,000 -435 Descending Chicago Center
Mon 07:45:57 PM 41.4978 -88.3772 70° East 302 348 6,000  Level Chicago Center
Mon 07:46:59 PM 41.5183 -88.2700 76° East 297 342 6,000 -484 Level Chicago Center
Mon 07:48:01 PM 41.5436 -88.1433 75° East 293 337 5,000 -484 Descending Chicago Center
Mon 07:49:03 PM 41.5664 -88.0372 74° East 293 337 5,000  Level Chicago Center
Mon 07:50:05 PM 41.5864 -87.9336 75° East 289 333 5,000 -488 Level Chicago Center
Mon 07:51:06 PM 41.6078 -87.8322 74° East 286 329 4,000 -1,011 Descending Chicago Center
Mon 07:51:34 PM 41.6333 -87.7833 55° Northeast 281 323 3,500 -545 Descending Chicago TRACON
Mon 07:52:34 PM 41.6833 -87.7167 45° Northeast 245 282 3,200 -750 Descending Chicago TRACON
Mon 07:53:34 PM 41.7333 -87.6833 26° Northeast 233 268 2,000 -789 Descending Chicago TRACON
Mon 07:54:28 PM 41.7833 -87.6667 14° North 200 230 1,700 -365 Descending Chicago TRACON
Mon 07:55:29 PM 41.8167 -87.7167 312° West 157 181 1,300 -393 Descending Chicago TRACON

Login

Don't have an account? Register now (free) for customized features, flight alerts, and more!